• Join FlightAware (Why Join?)
  • Login
  • US Flag 
05:29PM EDT


 

Airport Tracker/Info


-or-


 

Live Flight TrackerFlight Track Log ✈ SWA1202 ✈ 02-May-2013 ✈ KABQ - KLAX

Flight Track Log - Related Links

Times and Time Zones

All times are in EDT time to prevent confusion due to time zone crossing. See the SWA1202 flight status page for this flight to view local times or setup timezone preferences in your user account.

Time Position Orientation Groundspeed Altitude Reporting Facility
EDT Latitude Longitude Course Direction KTS MPH feet Rate Location/Type
03:46PM 35.0572 -106.5239 76° East 191 220 8,600  Level Albuquerque Center
03:47PM 35.0958 -106.5736 314° West 272 313 10,900 2,100 Climbing Albuquerque Center
03:47PM 35.0967 -106.5797 279° West 240 276 11,300 3,360 Climbing Albuquerque Center
03:48PM 35.0989 -106.6956 271° West 279 321 15,200 3,180 Climbing Albuquerque Center
03:49PM 35.1019 -106.8003 272° West 302 348 17,900 2,280 Climbing Albuquerque Center
03:50PM 35.1033 -106.9272 271° West 363 418 20,000 2,520 Climbing Albuquerque Center
03:51PM 35.1064 -107.0728 272° West 384 442 23,200 2,940 Climbing Albuquerque Center
03:52PM 35.1083 -107.2042 271° West 389 448 26,100 2,400 Climbing Albuquerque Center
03:53PM 35.1058 -107.3381 269° West 394 453 28,200 1,800 Climbing Albuquerque Center
03:54PM 35.0953 -107.4767 265° West 404 465 29,900 1,980 Climbing Albuquerque Center
03:55PM 35.0844 -107.6164 265° West 413 475 32,300 2,160 Climbing Albuquerque Center
03:56PM 35.0756 -107.7519 265° West 405 466 34,400 1,800 Climbing Albuquerque Center
03:57PM 35.0650 -107.8967 265° West 397 457 36,100 1,680 Climbing Albuquerque Center
03:58PM 35.0553 -108.0444 265° West 392 451 37,900 1,560 Climbing Albuquerque Center
03:59PM 35.0444 -108.1675 264° West 385 443 39,400 960 Climbing Albuquerque Center
04:01PM 35.0356 -108.2908 265° West 381 438 40,000 240 Climbing Albuquerque Center
04:02PM 35.0242 -108.4342 264° West 379 436 40,000  Level Albuquerque Center
04:03PM 35.0156 -108.5586 265° West 383 441 40,000  Level Albuquerque Center
04:04PM 35.0039 -108.7061 265° West 388 447 40,000  Level Albuquerque Center
04:05PM 34.9936 -108.8319 264° West 389 448 40,000  Level Albuquerque Center
04:06PM 34.9814 -108.9803 264° West 392 451 40,000  Level Albuquerque Center
04:07PM 34.9714 -109.1075 265° West 393 452 40,000  Level Albuquerque Center
04:08PM 34.9608 -109.2539 265° West 389 448 40,000  Level Albuquerque Center
04:09PM 34.9531 -109.3789 266° West 387 445 40,000  Level Albuquerque Center
04:10PM 34.9436 -109.5022 265° West 384 442 40,000  Level Albuquerque Center
04:11PM 34.9331 -109.6436 265° West 377 434 40,000  Level Albuquerque Center
04:12PM 34.9256 -109.7689 266° West 383 441 40,000  Level Albuquerque Center
04:13PM 34.9153 -109.9147 265° West 385 443 40,000  Level Albuquerque Center
04:14PM 34.9061 -110.0378 265° West 383 441 40,000  Level Albuquerque Center
04:15PM 34.8978 -110.1819 266° West 382 440 40,000  Level Albuquerque Center
04:16PM 34.8883 -110.3031 265° West 379 436 40,000  Level Albuquerque Center
04:17PM 34.8769 -110.4453 264° West 378 435 40,000  Level Albuquerque Center
04:18PM 34.8667 -110.5664 264° West 376 433 40,000  Level Albuquerque Center
04:19PM 34.8567 -110.6894 264° West 380 437 40,000  Level Albuquerque Center
04:20PM 34.8464 -110.8353 265° West 385 443 40,000  Level Albuquerque Center
04:21PM 34.8369 -110.9611 265° West 388 447 40,000  Level Albuquerque Center
04:22PM 34.8253 -111.1061 264° West 388 447 40,000  Level Albuquerque Center
04:23PM 34.8144 -111.2372 264° West 390 449 40,000  Level Albuquerque Center
04:24PM 34.8033 -111.3692 264° West 393 452 40,000  Level Albuquerque Center
04:25PM 34.7892 -111.5028 263° West 398 458 40,000  Level Albuquerque Center
04:26PM 34.7783 -111.6342 264° West 395 455 40,000  Level Albuquerque Center
04:27PM 34.7669 -111.7653 264° West 392 451 40,000  Level Albuquerque Center
04:28PM 34.7458 -111.9217 261° West 391 450 40,000  Level Albuquerque Center
04:29PM 34.7267 -112.0528 260° West 394 453 40,000  Level Albuquerque Center
04:30PM 34.7064 -112.1847 259° West 396 456 40,000  Level Albuquerque Center
04:31PM 34.6861 -112.3175 260° West 399 459 40,000  Level Albuquerque Center
04:32PM 34.6664 -112.4492 260° West 399 459 40,000  Level Albuquerque Center
04:34PM 34.6464 -112.5817 260° West 398 458 40,000  Level Albuquerque Center
04:35PM 34.6258 -112.7153 259° West 401 461 40,000  Level Albuquerque Center
04:36PM 34.5997 -112.8767 259° West 404 465 40,000  Level Albuquerque Center
04:37PM 34.5794 -113.0103 260° West 404 465 40,000  Level Albuquerque Center
04:38PM 34.5586 -113.1447 259° West 405 466 40,000  Level Albuquerque Center
04:39PM 34.5361 -113.2797 259° West 407 468 40,000  Level Albuquerque Center
04:41PM 34.5151 -113.4087 259° West  Level FlightAware Approximate
04:44PM 34.4261 -113.9692 258° West 406 467 40,000  Level Albuquerque Center
04:46PM 34.3919 -114.2253 258° West 409 471 40,000  Level Los Angeles Center
04:47PM 34.3864 -114.1958 258° West  Level FlightAware Approximate
04:47PM 34.3731 -114.3608 260° West 410 472 40,000  Level Los Angeles Center
04:47PM 34.3664 -114.4014 259° West 408 470 40,000  Level Albuquerque Center
04:48PM 34.3730 -114.2532 258° West  Level FlightAware Approximate
04:48PM 34.3544 -114.4961 261° West 410 472 40,000  Level Los Angeles Center
04:49PM 34.3520 -114.3735 258° West  Level FlightAware Approximate
04:49PM 34.3350 -114.6317 260° West 413 475 40,000  Level Los Angeles Center
04:50PM 34.3158 -114.7658 260° West 408 470 40,000  Level Los Angeles Center
04:51PM 34.2928 -114.9297 260° West 413 475 40,000  Level Los Angeles Center
04:52PM 34.2728 -115.0653 260° West 413 475 40,000  Level Los Angeles Center
04:53PM 34.2519 -115.2025 260° West 413 475 40,000 -300 Level Los Angeles Center
04:54PM 34.2351 -115.0365 258° West  Level FlightAware Approximate
04:54PM 34.2322 -115.3397 260° West 416 479 39,400  Level Los Angeles Center
04:55PM 34.2111 -115.4764 259° West 414 476 38,400 -960 Descending Los Angeles Center
04:56PM 34.1906 -115.6133 260° West 416 479 37,500 -1,020 Descending Los Angeles Center
04:57PM 34.1658 -115.7753 260° West 413 475 36,400 -1,020 Descending Los Angeles Center
04:58PM 34.1456 -115.9047 259° West 416 479 35,500 -1,380 Descending Los Angeles Center
04:59PM 34.1233 -116.0536 260° West 423 487 33,600 -1,860 Descending Los Angeles Center
05:00PM 34.1011 -116.1947 259° West 430 495 31,700 -1,860 Descending Los Angeles Center
05:01PM 34.0781 -116.3392 259° West 439 505 29,800 -2,280 Descending Los Angeles Center
05:02PM 34.0519 -116.5078 259° West 430 495 27,000 -2,460 Descending Los Angeles Center
05:03PM 34.0311 -116.6403 259° West 411 473 24,800 -2,100 Descending Los Angeles Center
05:04PM 34.0097 -116.7658 258° West 389 448 22,700 -2,040 Descending Los Angeles Center
05:05PM 33.9906 -116.8869 259° West 372 428 20,600 -2,220 Descending Los Angeles Center
05:06PM 33.9833 -116.9667 264° West 356 410 19,300 -2,100 Descending Southern California TRACON
05:07PM 33.9500 -117.0833 251° West 347 399 17,300 -1,260 Descending Southern California TRACON
05:08PM 33.9500 -117.2000 270° West 338 389 16,700 -1,140 Descending Southern California TRACON
05:09PM 33.9333 -117.3167 260° West 329 379 15,100 -1,740 Descending Southern California TRACON
05:10PM 33.9500 -117.4167 281° West 330 380 13,300 -1,800 Descending Southern California TRACON
05:11PM 33.9833 -117.5167 292° West 319 367 11,500 -1,560 Descending Southern California TRACON
05:12PM 34.0167 -117.6000 296° West 345 397 10,400 -840 Descending Southern California TRACON
05:13PM 34.0167 -117.7000 270° West 277 319 9,900 -900 Descending Southern California TRACON
05:14PM 34.0167 -117.7833 270° West 280 322 8,700 -1,260 Descending Southern California TRACON
05:15PM 34.0000 -117.8833 259° West 282 325 7,400 -1,260 Descending Southern California TRACON
05:16PM 34.0000 -117.9667 270° West 270 311 6,400 -1,080 Descending Southern California TRACON
05:17PM 33.9833 -118.0667 259° West 267 307 5,400 -900 Descending Southern California TRACON
05:18PM 33.9800 -118.1317 266° West 264 304 4,600 -1,080 Descending Los Angeles Center
05:19PM 33.9725 -118.2103 263° West 246 283 3,300 -1,320 Descending Los Angeles Center
05:20PM 33.9636 -118.2908 262° West 220 253 1,900 -1,080 Descending Los Angeles Center
05:21PM 33.9581 -118.3414 262° West 181 208 1,100 -720 Descending Los Angeles Center
05:22PM 33.9553 -118.3850 266° West 152 175 500 -480 Descending Los Angeles Center
05:23PM 33.9486 -118.4350 261° West 145 167 200 -300 Descending Los Angeles Center